createdAt,value
2022-12-06T00:00:51.230Z,-20222.56
2022-12-06T00:01:53.442Z,-20222.94
2022-12-06T00:02:55.691Z,-20223.31
2022-12-06T00:04:01.454Z,-20222.56
2022-12-06T00:05:03.828Z,-20220.00
2022-12-06T00:06:12.205Z,-20221.09
2022-12-06T00:07:14.311Z,-20222.56
2022-12-06T00:08:16.518Z,-20220.72
2022-12-06T00:09:24.865Z,-20223.69
2022-12-06T00:10:27.061Z,-20224.06
2022-12-06T00:11:31.805Z,-20225.16
2022-12-06T00:12:33.923Z,-20224.06
2022-12-06T00:13:38.921Z,-20223.69
2022-12-06T00:14:41.083Z,-20222.94
2022-12-06T00:15:43.269Z,-20222.19
2022-12-06T00:16:46.150Z,-20224.78
2022-12-06T00:17:48.332Z,-20227.00
2022-12-06T00:18:50.908Z,-20224.59
2022-12-06T00:19:52.997Z,-20222.94
2022-12-06T00:20:55.109Z,-20222.38
2022-12-06T00:21:57.244Z,-20224.41
2022-12-06T00:22:59.411Z,-20222.94
2022-12-06T00:24:05.268Z,-20223.88
2022-12-06T00:25:07.659Z,-20224.06
2022-12-06T00:26:10.318Z,-20222.19
2022-12-06T00:27:12.681Z,-20226.25
2022-12-06T00:28:14.818Z,-20226.63
2022-12-06T00:29:20.379Z,-20227.00
2022-12-06T00:30:22.525Z,-20225.72
2022-12-06T00:31:27.165Z,-20223.31
2022-12-06T00:32:29.416Z,-20223.88
2022-12-06T00:33:32.233Z,-20219.63
2022-12-06T00:34:34.428Z,-20223.31
2022-12-06T00:35:36.537Z,-20222.94
2022-12-06T00:36:41.230Z,-20224.06
2022-12-06T00:37:43.356Z,-20221.47
2022-12-06T00:38:46.345Z,-20223.13
2022-12-06T00:39:48.496Z,-20221.47
2022-12-06T00:40:50.957Z,-20219.81
2022-12-06T00:41:56.248Z,-20226.06
2022-12-06T00:42:58.404Z,-20221.28
2022-12-06T00:44:00.802Z,-20220.34
2022-12-06T00:45:03.332Z,-20217.41
2022-12-06T00:46:08.066Z,-20221.84
2022-12-06T00:47:10.304Z,-20219.63
2022-12-06T00:48:12.457Z,-20219.63
2022-12-06T00:49:14.660Z,-20221.84
2022-12-06T00:50:16.977Z,-20220.34
2022-12-06T00:51:20.530Z,-20220.00
2022-12-06T00:52:22.662Z,-20219.63
2022-12-06T00:53:26.038Z,-20218.88
2022-12-06T00:54:28.399Z,-20217.03
2022-12-06T00:55:30.536Z,-20219.25
2022-12-06T00:56:34.666Z,-20218.50
2022-12-06T00:57:36.818Z,-20218.69
2022-12-06T00:58:39.639Z,-20220.91
2022-12-06T00:59:41.716Z,-20218.88
2022-12-06T01:00:44.105Z,-20221.47
2022-12-06T01:01:46.299Z,-20220.34
2022-12-06T01:02:48.532Z,-20220.72
2022-12-06T01:03:53.521Z,-20223.13
2022-12-06T01:04:55.752Z,-20222.00
2022-12-06T01:05:57.844Z,-20221.09
2022-12-06T01:07:00.305Z,-20220.34
2022-12-06T01:08:02.511Z,-20221.28
2022-12-06T01:09:08.247Z,-20222.94
2022-12-06T01:10:10.885Z,-20222.19
2022-12-06T01:11:16.008Z,-20222.00
2022-12-06T01:12:19.337Z,-20222.38
2022-12-06T01:13:21.671Z,-20221.47
2022-12-06T01:14:24.725Z,-20221.84
2022-12-06T01:15:26.888Z,-20222.56
2022-12-06T01:16:31.191Z,-20220.72
2022-12-06T01:17:35.197Z,-20222.19
2022-12-06T01:18:38.258Z,-20219.25
2022-12-06T01:19:40.498Z,-20219.63
2022-12-06T01:20:42.629Z,-20219.63
2022-12-06T01:21:44.866Z,-20220.19
2022-12-06T01:22:46.984Z,-20222.19
2022-12-06T01:23:50.085Z,-20221.09
2022-12-06T01:24:52.190Z,-20221.47
2022-12-06T01:25:54.321Z,-20222.00
2022-12-06T01:26:56.453Z,-20224.06
2022-12-06T01:27:59.439Z,-20222.94
2022-12-06T01:29:03.048Z,-20223.31
2022-12-06T01:30:06.746Z,-20220.19
2022-12-06T01:31:08.973Z,-20220.00
2022-12-06T01:32:11.227Z,-20221.47
2022-12-06T01:33:13.324Z,-20220.00
2022-12-06T01:34:17.020Z,-20220.19
2022-12-06T01:35:19.214Z,-20220.19
2022-12-06T01:36:25.620Z,-20220.53
2022-12-06T01:37:27.765Z,-20219.81
2022-12-06T01:38:30.157Z,-20220.19
2022-12-06T01:39:32.492Z,-20222.38
2022-12-06T01:40:46.114Z,-20223.13
2022-12-06T01:41:48.295Z,-20221.66
2022-12-06T01:42:50.603Z,-20218.88
2022-12-06T01:43:54.201Z,-20221.47
2022-12-06T01:44:58.168Z,-20218.88
2022-12-06T01:46:06.422Z,-20219.63
2022-12-06T01:47:23.488Z,-20222.94
2022-12-06T01:48:26.609Z,-20224.06
2022-12-06T01:49:34.516Z,-20225.72
2022-12-06T01:50:39.501Z,-20223.13
2022-12-06T01:51:45.866Z,-20223.50
2022-12-06T01:52:55.108Z,-20227.38
2022-12-06T01:53:59.373Z,-20229.41
2022-12-06T01:55:03.357Z,-20226.63
2022-12-06T01:56:06.349Z,-20224.97
2022-12-06T01:57:11.120Z,-20226.63
2022-12-06T01:58:18.490Z,-20227.94
2022-12-06T01:59:22.515Z,-20227.75
2022-12-06T02:00:24.698Z,-20229.22
2022-12-06T02:01:30.105Z,-20229.97
2022-12-06T02:02:32.544Z,-20228.47
2022-12-06T02:03:34.902Z,-20227.19
2022-12-06T02:04:38.007Z,-20228.66
2022-12-06T02:05:41.323Z,-20226.63
2022-12-06T02:06:44.320Z,-20223.31
2022-12-06T02:07:47.636Z,-20228.28
2022-12-06T02:08:52.082Z,-20230.31
2022-12-06T02:09:55.001Z,-20230.31
2022-12-06T02:10:58.548Z,-20231.25
2022-12-06T02:12:44.059Z,-20232.53
2022-12-06T02:13:49.745Z,-20235.50
2022-12-06T02:14:54.362Z,-20236.22
2022-12-06T02:15:56.475Z,-20235.13
2022-12-06T02:17:07.597Z,-20234.75
2022-12-06T02:18:20.014Z,-20235.50
2022-12-06T02:19:34.265Z,-20237.72
2022-12-06T02:20:45.996Z,-20234.38
2022-12-06T02:22:03.006Z,-20235.50
2022-12-06T02:23:30.679Z,-20233.09
2022-12-06T02:24:47.973Z,-20232.34
2022-12-06T02:26:08.785Z,-20234.94
2022-12-06T02:27:37.529Z,-20237.91
2022-12-06T02:28:48.527Z,-20230.31
2022-12-06T02:29:53.286Z,-20231.97
2022-12-06T02:31:02.669Z,-20229.59
2022-12-06T02:32:13.376Z,-20232.16
2022-12-06T02:33:25.322Z,-20234.03
2022-12-06T02:35:12.984Z,-20234.03
2022-12-06T02:36:40.382Z,-20235.88
2022-12-06T02:37:56.531Z,-20236.59
2022-12-06T02:39:28.539Z,-20234.94
2022-12-06T02:40:39.670Z,-20232.16
2022-12-06T02:41:49.725Z,-20232.91
2022-12-06T02:42:57.197Z,-20227.75
2022-12-06T02:44:20.620Z,-20229.97
2022-12-06T02:45:28.913Z,-20229.41
2022-12-06T02:46:35.419Z,-20228.47
2022-12-06T02:47:38.798Z,-20227.19
2022-12-06T02:48:42.890Z,-20231.81
2022-12-06T02:49:50.090Z,-20234.75
2022-12-06T02:50:59.137Z,-20234.03
2022-12-06T02:52:02.315Z,-20232.53
2022-12-06T02:53:07.971Z,-20230.69
2022-12-06T02:54:11.698Z,-20230.31
2022-12-06T02:55:15.632Z,-20230.31
2022-12-06T02:56:18.741Z,-20228.66
2022-12-06T02:57:34.597Z,-20228.47
2022-12-06T02:58:38.155Z,-20227.00
2022-12-06T02:59:50.003Z,-20225.34
2022-12-06T03:01:00.957Z,-20226.44
2022-12-06T03:02:06.744Z,-20227.00
2022-12-06T03:03:31.440Z,-20227.94
2022-12-06T03:05:05.882Z,-20227.75
2022-12-06T03:06:29.486Z,-20225.91
2022-12-06T03:07:40.530Z,-20224.59
2022-12-06T03:09:19.832Z,-20224.06
2022-12-06T03:10:46.854Z,-20225.53
2022-12-06T03:12:12.132Z,-20225.91
2022-12-06T03:13:37.962Z,-20229.78
2022-12-06T03:15:07.165Z,-20227.00
2022-12-06T03:16:32.597Z,-20224.59
2022-12-06T03:17:57.851Z,-20224.59
2022-12-06T03:19:18.710Z,-20223.69
2022-12-06T03:20:51.796Z,-20228.28
2022-12-06T03:22:00.790Z,-20228.28
2022-12-06T03:23:07.067Z,-20227.19
2022-12-06T03:24:14.599Z,-20228.13
2022-12-06T03:25:17.164Z,-20228.13
2022-12-06T03:26:25.161Z,-20230.13
2022-12-06T03:27:30.192Z,-20234.94
2022-12-06T03:28:34.887Z,-20230.69
2022-12-06T03:29:41.317Z,-20234.03
2022-12-06T03:30:49.144Z,-20229.78
2022-12-06T03:31:52.516Z,-20228.13
2022-12-06T03:32:55.227Z,-20224.97
2022-12-06T03:34:02.671Z,-20230.31
2022-12-06T03:35:09.922Z,-20231.81
2022-12-06T03:36:14.999Z,-20234.03
2022-12-06T03:37:21.684Z,-20231.44
2022-12-06T03:38:35.531Z,-20231.25
2022-12-06T03:39:41.118Z,-20228.47
2022-12-06T03:40:47.416Z,-20229.41
2022-12-06T03:41:57.509Z,-20226.25
2022-12-06T03:43:00.370Z,-20223.50
2022-12-06T03:44:02.593Z,-20225.91
2022-12-06T03:45:06.054Z,-20225.34
2022-12-06T03:46:17.836Z,-20225.91
2022-12-06T03:47:28.240Z,-20225.16
2022-12-06T03:48:40.639Z,-20223.31
2022-12-06T03:49:56.084Z,-20226.06
2022-12-06T03:51:04.046Z,-20225.91
2022-12-06T03:52:06.639Z,-20228.13
2022-12-06T03:53:08.925Z,-20226.25
2022-12-06T03:54:12.012Z,-20224.59
2022-12-06T03:55:14.180Z,-20227.94
2022-12-06T03:56:16.472Z,-20224.78
2022-12-06T03:57:18.596Z,-20222.94
2022-12-06T03:58:21.048Z,-20225.16
2022-12-06T03:59:23.178Z,-20223.50
2022-12-06T04:00:25.319Z,-20221.09
2022-12-06T04:01:27.486Z,-20220.72
2022-12-06T04:02:29.620Z,-20224.78
2022-12-06T04:03:31.805Z,-20221.84
2022-12-06T04:04:33.978Z,-20224.78
2022-12-06T04:05:36.096Z,-20225.91
2022-12-06T04:06:38.217Z,-20227.00
2022-12-06T04:07:40.427Z,-20226.63
2022-12-06T04:08:42.593Z,-20225.53
2022-12-06T04:09:56.290Z,-20224.78
2022-12-06T04:10:58.624Z,-20224.06
2022-12-06T04:12:00.726Z,-20223.13
2022-12-06T04:13:02.927Z,-20222.56
2022-12-06T04:14:05.045Z,-20219.81
2022-12-06T04:15:09.184Z,-20221.47
2022-12-06T04:16:29.943Z,-20217.03
2022-12-06T04:17:50.624Z,-20218.16
2022-12-06T04:18:52.734Z,-20220.34
2022-12-06T04:19:54.851Z,-20221.47
2022-12-06T04:21:23.054Z,-20223.31
2022-12-06T04:22:43.789Z,-20221.66
2022-12-06T04:23:49.185Z,-20222.19
2022-12-06T04:24:51.278Z,-20220.91
2022-12-06T04:25:53.460Z,-20217.97
2022-12-06T04:27:15.540Z,-20220.34
2022-12-06T04:28:36.330Z,-20221.09
2022-12-06T04:29:57.188Z,-20224.41
2022-12-06T04:31:22.078Z,-20226.25
2022-12-06T04:32:43.117Z,-20219.25
2022-12-06T04:34:04.007Z,-20219.63
2022-12-06T04:35:25.012Z,-20217.78
2022-12-06T04:36:45.463Z,-20221.84
2022-12-06T04:38:05.926Z,-20215.94
2022-12-06T04:39:08.157Z,-20220.34
2022-12-06T04:40:10.850Z,-20220.72
2022-12-06T04:41:33.672Z,-20218.50
2022-12-06T04:42:59.077Z,-20217.03
2022-12-06T04:44:01.207Z,-20221.28
2022-12-06T04:45:05.548Z,-20220.19
2022-12-06T04:46:09.207Z,-20219.81
2022-12-06T04:47:11.471Z,-20220.72
2022-12-06T04:48:13.562Z,-20219.25
2022-12-06T04:49:15.708Z,-20221.28
2022-12-06T04:50:17.811Z,-20220.00
2022-12-06T04:51:20.223Z,-20220.34
2022-12-06T04:52:22.400Z,-20218.16
2022-12-06T04:53:24.557Z,-20218.50
2022-12-06T04:54:27.225Z,-20217.41
2022-12-06T04:55:29.316Z,-20217.78
2022-12-06T04:56:31.547Z,-20218.69
2022-12-06T04:57:33.729Z,-20215.94
2022-12-06T04:58:35.901Z,-20215.94
2022-12-06T04:59:40.103Z,-20217.78
2022-12-06T05:00:43.703Z,-20216.66
2022-12-06T05:01:46.054Z,-20215.00
2022-12-06T05:02:48.155Z,-20216.13
2022-12-06T05:03:50.336Z,-20217.78
2022-12-06T05:04:52.462Z,-20218.50
2022-12-06T05:05:54.728Z,-20222.38
2022-12-06T05:06:56.825Z,-20217.59
2022-12-06T05:07:58.984Z,-20218.50
2022-12-06T05:09:01.183Z,-20217.78
2022-12-06T05:10:03.956Z,-20217.03
2022-12-06T05:11:06.163Z,-20217.41
2022-12-06T05:12:08.671Z,-20216.66
2022-12-06T05:13:10.800Z,-20218.16
2022-12-06T05:14:12.934Z,-20216.28
2022-12-06T05:15:16.055Z,-20212.97
2022-12-06T05:16:18.406Z,-20214.09
2022-12-06T05:17:20.547Z,-20215.00
2022-12-06T05:18:23.113Z,-20214.09
2022-12-06T05:19:25.404Z,-20214.44
2022-12-06T05:20:27.546Z,-20216.28
2022-12-06T05:21:29.703Z,-20216.13
2022-12-06T05:22:34.856Z,-20215.75
2022-12-06T05:23:37.027Z,-20217.78
2022-12-06T05:24:39.168Z,-20214.28
2022-12-06T05:25:41.566Z,-20214.28
2022-12-06T05:26:43.710Z,-20215.19
2022-12-06T05:27:45.870Z,-20217.78
2022-12-06T05:28:48.998Z,-20219.63
2022-12-06T05:29:51.120Z,-20215.75
2022-12-06T05:30:53.278Z,-20215.75
2022-12-06T05:31:55.505Z,-20217.03
2022-12-06T05:32:57.739Z,-20215.94
2022-12-06T05:33:59.905Z,-20217.78
2022-12-06T05:35:02.029Z,-20216.66
2022-12-06T05:36:15.638Z,-20219.25
2022-12-06T05:37:17.769Z,-20215.56
2022-12-06T05:38:20.784Z,-20220.00
2022-12-06T05:39:23.110Z,-20215.94
2022-12-06T05:40:25.259Z,-20214.81
2022-12-06T05:41:27.487Z,-20216.66
2022-12-06T05:42:29.583Z,-20219.63
2022-12-06T05:43:32.225Z,-20217.03
2022-12-06T05:44:34.569Z,-20214.28
2022-12-06T05:45:38.057Z,-20217.03
2022-12-06T05:46:40.267Z,-20217.59
2022-12-06T05:47:42.399Z,-20215.19
2022-12-06T05:48:44.964Z,-20216.84
2022-12-06T05:49:47.175Z,-20216.47
2022-12-06T05:50:50.088Z,-20212.63
2022-12-06T05:51:52.329Z,-20210.22
2022-12-06T05:52:55.326Z,-20209.47
2022-12-06T05:53:57.670Z,-20207.81
2022-12-06T05:55:00.080Z,-20209.66
2022-12-06T05:56:07.341Z,-20210.41
2022-12-06T05:57:09.486Z,-20211.13
2022-12-06T05:58:12.631Z,-20209.66
2022-12-06T05:59:14.746Z,-20209.28
2022-12-06T06:00:17.760Z,-20207.81
2022-12-06T06:01:19.873Z,-20204.84
2022-12-06T06:02:22.378Z,-20204.13
2022-12-06T06:03:24.688Z,-20204.13
2022-12-06T06:04:26.861Z,-20203.75
2022-12-06T06:05:28.988Z,-20205.59
2022-12-06T06:06:31.143Z,-20205.78
2022-12-06T06:07:33.337Z,-20208.91
2022-12-06T06:08:35.479Z,-20206.69
2022-12-06T06:09:37.592Z,-20205.59
2022-12-06T06:10:39.897Z,-20204.50
2022-12-06T06:11:41.997Z,-20204.84
2022-12-06T06:12:44.849Z,-20208.91
2022-12-06T06:13:47.190Z,-20208.56
2022-12-06T06:14:49.423Z,-20202.09
2022-12-06T06:15:51.962Z,-20200.78
2022-12-06T06:16:54.148Z,-20200.59
2022-12-06T06:17:56.795Z,-20201.53
2022-12-06T06:18:58.881Z,-20198.03
2022-12-06T06:20:05.598Z,-20197.09
2022-12-06T06:21:08.052Z,-20200.06
2022-12-06T06:22:10.152Z,-20198.94
2022-12-06T06:23:12.257Z,-20198.22
2022-12-06T06:24:14.340Z,-20195.25
2022-12-06T06:25:16.520Z,-20195.25
2022-12-06T06:26:18.676Z,-20196.00
2022-12-06T06:27:20.761Z,-20193.41
2022-12-06T06:28:23.746Z,-20192.50
2022-12-06T06:29:25.864Z,-20190.47
2022-12-06T06:30:28.125Z,-20192.31
2022-12-06T06:31:30.345Z,-20191.56
2022-12-06T06:32:32.454Z,-20190.47
2022-12-06T06:33:34.624Z,-20192.31
2022-12-06T06:34:36.710Z,-20190.81
2022-12-06T06:35:39.965Z,-20188.63
2022-12-06T06:36:45.717Z,-20187.13
2022-12-06T06:37:48.317Z,-20188.97
2022-12-06T06:38:50.492Z,-20189.72
2022-12-06T06:39:52.782Z,-20188.81
2022-12-06T06:40:54.996Z,-20185.66
2022-12-06T06:41:57.105Z,-20185.66
2022-12-06T06:43:17.914Z,-20186.03
2022-12-06T06:44:20.220Z,-20185.84
2022-12-06T06:45:28.364Z,-20185.66
2022-12-06T06:46:31.243Z,-20187.31
2022-12-06T06:47:33.988Z,-20186.78
2022-12-06T06:48:38.933Z,-20187.50
2022-12-06T06:49:41.267Z,-20186.41
2022-12-06T06:50:43.386Z,-20189.72
2022-12-06T06:51:45.813Z,-20186.78
2022-12-06T06:52:48.184Z,-20184.56
2022-12-06T06:53:50.308Z,-20187.50
2022-12-06T06:54:52.569Z,-20186.41
2022-12-06T06:55:55.176Z,-20187.13
2022-12-06T06:56:57.373Z,-20184.75
2022-12-06T06:57:59.508Z,-20187.69
2022-12-06T06:59:01.722Z,-20186.59
2022-12-06T07:00:05.162Z,-20188.97
2022-12-06T07:01:09.243Z,-20188.97
2022-12-06T07:02:16.889Z,-20190.47
2022-12-06T07:03:20.308Z,-20189.72
2022-12-06T07:04:22.659Z,-20189.72
2022-12-06T07:05:24.858Z,-20193.41
2022-12-06T07:06:27.025Z,-20192.31
2022-12-06T07:07:29.166Z,-20192.69
2022-12-06T07:08:32.132Z,-20188.63
2022-12-06T07:09:34.757Z,-20189.34
2022-12-06T07:10:36.885Z,-20186.78
2022-12-06T07:11:39.127Z,-20188.06
2022-12-06T07:12:41.269Z,-20187.88
2022-12-06T07:13:49.498Z,-20193.03
2022-12-06T07:14:54.661Z,-20192.69
2022-12-06T07:15:58.902Z,-20192.50
2022-12-06T07:17:01.192Z,-20191.94
2022-12-06T07:18:03.464Z,-20190.28
2022-12-06T07:19:09.049Z,-20194.53
2022-12-06T07:20:11.670Z,-20195.81
2022-12-06T07:21:16.439Z,-20193.41
2022-12-06T07:22:18.544Z,-20190.81
2022-12-06T07:23:20.756Z,-20191.94
2022-12-06T07:24:22.973Z,-20189.72
2022-12-06T07:25:25.109Z,-20194.53
2022-12-06T07:26:28.952Z,-20194.72
2022-12-06T07:27:36.733Z,-20190.81
2022-12-06T07:28:41.029Z,-20190.47
2022-12-06T07:29:43.166Z,-20194.72
2022-12-06T07:30:45.422Z,-20196.91
2022-12-06T07:31:47.629Z,-20197.84
2022-12-06T07:32:49.859Z,-20198.59
2022-12-06T07:33:55.927Z,-20195.63
2022-12-06T07:34:58.085Z,-20195.63
2022-12-06T07:36:15.623Z,-20192.69
2022-12-06T07:37:20.411Z,-20196.00
2022-12-06T07:38:22.555Z,-20191.19
2022-12-06T07:39:25.233Z,-20194.88
2022-12-06T07:40:55.979Z,-20194.16
2022-12-06T07:42:08.234Z,-20194.53
2022-12-06T07:43:34.996Z,-20191.38
2022-12-06T07:45:01.420Z,-20193.41
2022-12-06T07:46:10.781Z,-20196.72
2022-12-06T07:47:12.924Z,-20194.88
2022-12-06T07:48:15.225Z,-20194.88
2022-12-06T07:49:18.536Z,-20195.63
2022-12-06T07:50:22.750Z,-20198.03
2022-12-06T07:51:24.889Z,-20192.13
2022-12-06T07:52:31.386Z,-20193.78
2022-12-06T07:53:33.481Z,-20192.69
2022-12-06T07:54:35.685Z,-20190.81
2022-12-06T07:55:37.850Z,-20191.19
2022-12-06T07:56:40.584Z,-20195.25
2022-12-06T07:57:44.218Z,-20195.63
2022-12-06T07:58:46.556Z,-20196.56
2022-12-06T07:59:48.697Z,-20193.41
2022-12-06T08:00:50.976Z,-20194.16
2022-12-06T08:01:53.965Z,-20194.88
2022-12-06T08:02:56.161Z,-20198.03
2022-12-06T08:04:02.636Z,-20199.31
2022-12-06T08:05:05.152Z,-20195.25
2022-12-06T08:06:08.473Z,-20198.22
2022-12-06T08:07:10.629Z,-20197.09
2022-12-06T08:08:12.782Z,-20198.22
2022-12-06T08:09:15.032Z,-20200.44
2022-12-06T08:10:17.390Z,-20200.44
2022-12-06T08:11:20.612Z,-20201.91
2022-12-06T08:12:23.327Z,-20202.44
2022-12-06T08:13:25.447Z,-20202.81
2022-12-06T08:14:27.912Z,-20200.97
2022-12-06T08:15:30.053Z,-20200.78
2022-12-06T08:16:32.276Z,-20207.25
2022-12-06T08:17:34.479Z,-20207.06
2022-12-06T08:18:37.443Z,-20207.06
2022-12-06T08:19:39.613Z,-20208.91
2022-12-06T08:20:41.740Z,-20204.50
2022-12-06T08:21:44.008Z,-20208.19
2022-12-06T08:22:46.135Z,-20206.69
2022-12-06T08:23:48.237Z,-20206.88
2022-12-06T08:24:50.380Z,-20207.81
2022-12-06T08:26:02.469Z,-20214.09
2022-12-06T08:27:04.657Z,-20210.03
2022-12-06T08:28:06.958Z,-20213.34
2022-12-06T08:29:09.165Z,-20215.94
2022-12-06T08:30:11.487Z,-20214.44
2022-12-06T08:31:17.140Z,-20217.41
2022-12-06T08:32:19.493Z,-20216.13
2022-12-06T08:33:24.652Z,-20219.06
2022-12-06T08:34:27.946Z,-20216.66
2022-12-06T08:35:30.114Z,-20217.97
2022-12-06T08:36:32.288Z,-20215.75
2022-12-06T08:37:34.963Z,-20215.38
2022-12-06T08:38:38.183Z,-20214.44
2022-12-06T08:39:40.319Z,-20217.78
2022-12-06T08:40:42.871Z,-20217.97
2022-12-06T08:41:58.221Z,-20215.94
2022-12-06T08:43:00.374Z,-20214.44
2022-12-06T08:44:04.277Z,-20215.94
2022-12-06T08:45:06.874Z,-20217.03
2022-12-06T08:46:08.991Z,-20215.75
2022-12-06T08:47:11.284Z,-20213.34
2022-12-06T08:48:13.536Z,-20216.66
2022-12-06T08:49:16.895Z,-20217.22
2022-12-06T08:50:19.017Z,-20219.25
2022-12-06T08:51:21.592Z,-20217.03
2022-12-06T08:52:23.765Z,-20218.88
2022-12-06T08:53:25.909Z,-20220.00
2022-12-06T08:54:28.936Z,-20219.25
2022-12-06T08:55:31.040Z,-20219.63
2022-12-06T08:56:33.319Z,-20220.34
2022-12-06T08:57:35.480Z,-20219.44
2022-12-06T08:58:37.645Z,-20218.50
2022-12-06T08:59:39.865Z,-20218.34
2022-12-06T09:00:41.950Z,-20221.84
2022-12-06T09:01:44.765Z,-20223.13
2022-12-06T09:02:46.872Z,-20222.00
2022-12-06T09:03:49.202Z,-20219.63
2022-12-06T09:04:51.956Z,-20222.56
2022-12-06T09:05:54.251Z,-20220.72
2022-12-06T09:06:56.414Z,-20221.47
2022-12-06T09:07:58.668Z,-20221.84
2022-12-06T09:09:00.832Z,-20221.47
2022-12-06T09:10:03.498Z,-20220.34
2022-12-06T09:11:07.416Z,-20219.63
2022-12-06T09:12:09.550Z,-20223.69
2022-12-06T09:13:11.656Z,-20223.13
2022-12-06T09:14:20.965Z,-20223.50
2022-12-06T09:15:23.829Z,-20221.28
2022-12-06T09:16:26.013Z,-20220.53
2022-12-06T09:17:28.247Z,-20223.88
2022-12-06T09:18:30.354Z,-20223.50
2022-12-06T09:19:32.554Z,-20221.47
2022-12-06T09:20:34.640Z,-20221.84
2022-12-06T09:21:39.637Z,-20223.31
2022-12-06T09:22:41.904Z,-20222.94
2022-12-06T09:23:44.089Z,-20221.09
2022-12-06T09:24:46.240Z,-20219.63
2022-12-06T09:25:48.394Z,-20219.63
2022-12-06T09:26:50.515Z,-20216.28
2022-12-06T09:27:53.435Z,-20218.88
2022-12-06T09:28:56.762Z,-20219.06
2022-12-06T09:29:59.238Z,-20219.25
2022-12-06T09:31:02.748Z,-20220.34
2022-12-06T09:32:05.020Z,-20220.34
2022-12-06T09:33:07.294Z,-20218.69
2022-12-06T09:34:11.300Z,-20220.00
2022-12-06T09:35:15.600Z,-20218.69
2022-12-06T09:36:23.492Z,-20224.59
2022-12-06T09:37:25.746Z,-20223.69
2022-12-06T09:38:30.995Z,-20223.69
2022-12-06T09:39:39.611Z,-20224.59
2022-12-06T09:41:19.907Z,-20228.13
2022-12-06T09:43:05.708Z,-20231.44
2022-12-06T09:44:22.708Z,-20231.44
2022-12-06T09:45:43.036Z,-20234.56
2022-12-06T09:47:07.633Z,-20234.38
2022-12-06T09:48:18.702Z,-20236.97
2022-12-06T09:49:30.011Z,-20239.38
2022-12-06T09:50:40.924Z,-20236.03
2022-12-06T09:52:01.849Z,-20239.56
2022-12-06T09:53:15.871Z,-20242.50
2022-12-06T09:54:30.761Z,-20239.19
2022-12-06T09:55:51.448Z,-20240.28
2022-12-06T09:57:08.781Z,-20242.88
2022-12-06T09:58:13.718Z,-20243.25
2022-12-06T09:59:48.594Z,-20242.13
2022-12-06T10:01:08.309Z,-20237.53
2022-12-06T10:02:44.350Z,-20241.03
2022-12-06T10:04:25.177Z,-20245.47
2022-12-06T10:05:37.297Z,-20246.56
2022-12-06T10:06:48.700Z,-20241.41
2022-12-06T10:08:19.980Z,-20247.13
2022-12-06T10:09:36.486Z,-20244.72
2022-12-06T10:11:05.320Z,-20241.75
2022-12-06T10:12:36.248Z,-20243.25
2022-12-06T10:13:57.197Z,-20247.50
2022-12-06T10:15:26.979Z,-20245.47
2022-12-06T10:16:55.773Z,-20235.50
2022-12-06T10:18:22.491Z,-20239.56
2022-12-06T10:19:30.369Z,-20242.50
2022-12-06T10:20:59.414Z,-20242.88
2022-12-06T10:22:25.664Z,-20241.59
2022-12-06T10:24:04.519Z,-20245.81
2022-12-06T10:25:23.796Z,-20245.09
2022-12-06T10:26:39.921Z,-20246.75
2022-12-06T10:28:15.885Z,-20252.84
2022-12-06T10:29:29.726Z,-20252.47
2022-12-06T10:30:34.852Z,-20255.78
2022-12-06T10:31:51.912Z,-20257.28
2022-12-06T10:33:05.569Z,-20255.06
2022-12-06T10:34:48.671Z,-20253.94
2022-12-06T10:35:59.909Z,-20257.66
2022-12-06T10:37:13.051Z,-20261.34
2022-12-06T10:38:33.926Z,-20264.28
2022-12-06T10:39:54.007Z,-20263.91
2022-12-06T10:41:21.499Z,-20270.19
2022-12-06T10:42:29.656Z,-20263.19
2022-12-06T10:44:09.122Z,-20267.25
2022-12-06T10:45:47.765Z,-20264.66
2022-12-06T10:47:06.583Z,-20260.59
2022-12-06T10:48:36.275Z,-20258.94
2022-12-06T10:49:53.408Z,-20260.22
2022-12-06T10:51:07.248Z,-20261.69
2022-12-06T10:52:18.454Z,-20261.69
2022-12-06T10:53:24.893Z,-20259.13
2022-12-06T10:54:53.194Z,-20255.44
2022-12-06T10:56:05.479Z,-20255.25
2022-12-06T10:57:39.507Z,-20251.19
2022-12-06T10:58:54.054Z,-20250.25
2022-12-06T11:00:04.101Z,-20248.03
2022-12-06T11:01:12.284Z,-20250.25
2022-12-06T11:02:24.671Z,-20253.03
2022-12-06T11:03:37.985Z,-20249.16
2022-12-06T11:04:42.238Z,-20250.06
2022-12-06T11:06:26.809Z,-20250.25
2022-12-06T11:07:38.069Z,-20247.31
2022-12-06T11:08:46.747Z,-20247.13
2022-12-06T11:09:54.613Z,-20249.53
2022-12-06T11:10:59.308Z,-20248.78
2022-12-06T11:12:02.387Z,-20249.16
2022-12-06T11:13:36.437Z,-20251.38
2022-12-06T11:14:46.630Z,-20249.53
2022-12-06T11:16:30.105Z,-20256.72
2022-12-06T11:17:43.264Z,-20260.78
2022-12-06T11:18:47.328Z,-20263.91
2022-12-06T11:19:52.151Z,-20266.13
2022-12-06T11:21:01.999Z,-20269.47
2022-12-06T11:22:33.415Z,-20278.69
2022-12-06T11:23:40.593Z,-20276.84
2022-12-06T11:25:02.464Z,-20283.28
2022-12-06T11:26:18.132Z,-18688.88
2022-12-06T11:27:31.915Z,-16461.03
2022-12-06T11:28:36.549Z,-13905.09
2022-12-06T11:29:38.657Z,-11027.16
2022-12-06T11:30:44.908Z,-8468.91
2022-12-06T11:31:51.934Z,-2694.41
2022-12-06T11:32:55.594Z,1160.69
2022-12-06T11:33:59.975Z,6630.28
2022-12-06T11:35:02.254Z,11785.59
2022-12-06T11:36:07.353Z,17268.00
2022-12-06T11:37:21.009Z,20502.56
2022-12-06T11:38:23.771Z,27285.63
2022-12-06T11:39:26.742Z,28257.03
2022-12-06T11:40:32.505Z,28910.84
2022-12-06T11:41:37.248Z,29880.63
2022-12-06T11:42:39.425Z,31822.75
2022-12-06T11:43:41.808Z,30203.38
2022-12-06T11:44:50.103Z,30532.41
2022-12-06T11:45:55.443Z,32470.09
2022-12-06T11:47:02.864Z,31175.44
2022-12-06T11:48:16.559Z,31177.13
2022-12-06T11:49:26.722Z,33436.03
2022-12-06T11:50:30.299Z,33107.91
2022-12-06T11:51:32.516Z,32129.06
2022-12-06T11:52:38.895Z,29220.25
2022-12-06T11:53:45.302Z,27918.75
2022-12-06T11:54:53.913Z,27272.44
2022-12-06T11:56:01.048Z,25014.25
2022-12-06T11:57:22.110Z,25017.25
2022-12-06T11:58:30.368Z,25018.38
2022-12-06T11:59:32.643Z,21796.44
2022-12-06T12:00:35.041Z,24713.66
2022-12-06T12:01:45.533Z,31211.41
2022-12-06T12:02:50.373Z,47836.84
2022-12-06T12:03:52.838Z,73388.88
2022-12-06T12:04:55.037Z,101848.56
2022-12-06T12:06:09.023Z,147610.47
2022-12-06T12:07:17.989Z,147588.66
2022-12-06T12:08:20.587Z,147557.19
2022-12-06T12:09:23.192Z,147517.22
2022-12-06T12:10:27.737Z,147495.44
2022-12-06T12:11:32.551Z,147428.91
2022-12-06T12:13:04.135Z,147332.16
2022-12-06T12:14:37.735Z,147187.09
2022-12-06T12:15:50.357Z,147090.34
2022-12-06T12:16:58.814Z,147037.16
2022-12-06T12:18:03.398Z,147021.47
2022-12-06T12:19:32.581Z,128952.50
2022-12-06T12:20:39.144Z,112347.31
2022-12-06T12:21:42.544Z,102042.63
2022-12-06T12:22:44.714Z,92160.78
2022-12-06T12:23:47.641Z,82629.78
2022-12-06T12:26:21.435Z,62982.91
2022-12-06T12:27:38.621Z,58398.88
2022-12-06T12:28:42.529Z,53175.41
2022-12-06T12:29:44.645Z,47320.72
2022-12-06T12:30:55.488Z,42775.66
2022-12-06T12:31:58.921Z,39536.75
2022-12-06T12:33:07.078Z,37265.81
2022-12-06T12:34:29.513Z,34023.22
2022-12-06T12:35:37.490Z,32401.22
2022-12-06T12:36:39.577Z,29489.16
2022-12-06T12:37:41.780Z,25620.34
2022-12-06T12:38:57.189Z,22408.75
2022-12-06T12:40:02.014Z,24372.38
2022-12-06T12:41:33.205Z,36083.91
2022-12-06T12:42:36.533Z,62509.03
2022-12-06T12:43:39.774Z,95334.25
2022-12-06T12:44:46.157Z,118794.97
2022-12-06T12:46:14.700Z,136414.47
2022-12-06T12:47:20.703Z,139716.47
2022-12-06T12:48:25.237Z,145660.53
2022-12-06T12:49:36.292Z,137642.97
2022-12-06T12:50:38.562Z,128004.53
2022-12-06T12:51:46.438Z,125649.47